createdAt,value
2023-02-09T00:00:09.089Z,102823.02
2023-02-09T00:03:04.040Z,102820.75
2023-02-09T00:05:32.664Z,102824.09
2023-02-09T00:08:01.113Z,102822.70
2023-02-09T00:10:29.587Z,102823.29
2023-02-09T00:13:16.473Z,102818.90
2023-02-09T00:15:55.368Z,102818.68
2023-02-09T00:18:25.679Z,102818.41
2023-02-09T00:21:03.269Z,102813.10
2023-02-09T00:23:32.894Z,102814.59
2023-02-09T00:26:08.486Z,102812.00
2023-02-09T00:28:37.426Z,102815.17
2023-02-09T00:31:10.977Z,102812.23
2023-02-09T00:33:42.135Z,102811.85
2023-02-09T00:36:14.555Z,102812.88
2023-02-09T00:38:44.117Z,102815.11
2023-02-09T00:41:14.408Z,102814.16
2023-02-09T00:43:43.060Z,102809.24
2023-02-09T00:46:11.569Z,102806.57
2023-02-09T00:48:40.057Z,102808.72
2023-02-09T00:51:08.484Z,102807.64
2023-02-09T00:53:37.478Z,102806.73
2023-02-09T00:56:06.651Z,102802.50
2023-02-09T00:58:35.117Z,102796.45
2023-02-09T01:01:03.754Z,102791.15
2023-02-09T01:03:32.257Z,102787.52
2023-02-09T01:06:00.894Z,102785.78
2023-02-09T01:08:29.468Z,102775.55
2023-02-09T01:10:57.887Z,102774.45
2023-02-09T01:13:26.641Z,102765.38
2023-02-09T01:15:55.102Z,102768.55
2023-02-09T01:18:23.590Z,102764.02
2023-02-09T01:20:51.989Z,102760.21
2023-02-09T01:23:20.455Z,102755.19
2023-02-09T01:25:48.887Z,102755.64
2023-02-09T01:28:17.365Z,102747.95
2023-02-09T01:30:46.151Z,102748.36
2023-02-09T01:33:15.905Z,102744.20
2023-02-09T01:35:44.393Z,102742.95
2023-02-09T01:38:13.184Z,102743.81
2023-02-09T01:40:50.380Z,102740.64
2023-02-09T01:43:18.870Z,102740.36
2023-02-09T01:45:51.951Z,102742.00
2023-02-09T01:48:24.525Z,102740.17
2023-02-09T01:50:57.922Z,102736.02
2023-02-09T01:53:28.430Z,102736.05
2023-02-09T01:56:11.598Z,102734.27
2023-02-09T01:58:40.317Z,102734.63
2023-02-09T02:01:09.449Z,102725.73
2023-02-09T02:03:38.073Z,102721.19
2023-02-09T02:06:11.880Z,102714.02
2023-02-09T02:08:45.998Z,102710.23
2023-02-09T02:11:15.320Z,102709.14
2023-02-09T02:13:45.053Z,102703.59
2023-02-09T02:16:25.613Z,102699.37
2023-02-09T02:19:19.213Z,102698.48
2023-02-09T02:22:08.771Z,102688.06
2023-02-09T02:24:55.588Z,102679.54
2023-02-09T02:27:39.211Z,102672.42
2023-02-09T02:30:20.487Z,102671.77
2023-02-09T02:33:23.380Z,102665.35
2023-02-09T02:36:07.235Z,102660.70
2023-02-09T02:39:04.714Z,102659.34
2023-02-09T02:42:03.664Z,102656.52
2023-02-09T02:44:37.646Z,102658.07
2023-02-09T02:47:09.149Z,102655.80
2023-02-09T02:49:42.950Z,102649.05
2023-02-09T02:52:12.193Z,102647.39
2023-02-09T02:54:46.032Z,102641.80
2023-02-09T02:57:19.548Z,102635.21
2023-02-09T02:59:57.931Z,102633.98
2023-02-09T03:02:35.288Z,102630.04
2023-02-09T03:05:05.864Z,102628.98
2023-02-09T03:07:34.487Z,102626.94
2023-02-09T03:10:23.055Z,102625.58
2023-02-09T03:13:29.407Z,102627.22
2023-02-09T03:16:13.006Z,102624.58
2023-02-09T03:19:05.570Z,102623.23
2023-02-09T03:22:21.722Z,102617.73
2023-02-09T03:25:02.504Z,102613.70
2023-02-09T03:27:39.092Z,102610.56
2023-02-09T03:30:11.846Z,102604.73
2023-02-09T03:32:42.614Z,102602.09
2023-02-09T03:35:15.063Z,102601.06
2023-02-09T03:37:43.746Z,102603.97
2023-02-09T03:40:12.611Z,102603.05
2023-02-09T03:42:41.360Z,102603.85
2023-02-09T03:45:09.972Z,102605.60
2023-02-09T03:47:38.451Z,102603.33
2023-02-09T03:50:07.740Z,102599.55
2023-02-09T03:52:36.577Z,102597.09
2023-02-09T03:55:05.585Z,102590.37
2023-02-09T03:57:34.105Z,102587.58
2023-02-09T04:00:04.205Z,102586.19
2023-02-09T04:02:40.439Z,102585.33
2023-02-09T04:05:09.609Z,102585.16
2023-02-09T04:07:38.223Z,102581.77
2023-02-09T04:10:07.158Z,102586.50
2023-02-09T04:12:35.701Z,102586.80
2023-02-09T04:15:04.277Z,102582.45
2023-02-09T04:17:32.757Z,102579.45
2023-02-09T04:20:01.205Z,102572.77
2023-02-09T04:22:29.707Z,102572.81
2023-02-09T04:24:58.348Z,102572.48
2023-02-09T04:27:28.670Z,102559.72
2023-02-09T04:29:57.251Z,102553.58
2023-02-09T04:32:25.737Z,102554.60
2023-02-09T04:34:54.252Z,102553.84
2023-02-09T04:37:22.888Z,102553.36
2023-02-09T04:39:51.349Z,102547.73
2023-02-09T04:42:19.779Z,102546.65
2023-02-09T04:44:48.244Z,102552.35
2023-02-09T04:47:16.920Z,102553.57
2023-02-09T04:49:45.375Z,102552.27
2023-02-09T04:52:13.806Z,102546.36
2023-02-09T04:54:42.363Z,102544.46
2023-02-09T04:57:29.906Z,102540.98
2023-02-09T04:59:58.316Z,102536.16
2023-02-09T05:02:26.767Z,102532.89
2023-02-09T05:04:55.542Z,102531.95
2023-02-09T05:07:26.689Z,102528.00
2023-02-09T05:09:55.136Z,102527.30
2023-02-09T05:12:23.558Z,102519.96
2023-02-09T05:14:52.122Z,102517.27
2023-02-09T05:17:21.388Z,102514.56
2023-02-09T05:19:49.897Z,102511.92
2023-02-09T05:22:18.331Z,102506.96
2023-02-09T05:24:46.810Z,102502.44
2023-02-09T05:27:15.510Z,102504.84
2023-02-09T05:29:43.974Z,102499.61
2023-02-09T05:32:12.614Z,102498.60
2023-02-09T05:34:41.142Z,102494.83
2023-02-09T05:37:09.603Z,102491.22
2023-02-09T05:39:38.051Z,102486.27
2023-02-09T05:42:15.562Z,102484.05
2023-02-09T05:44:45.992Z,102490.31
2023-02-09T05:47:17.077Z,102490.36
2023-02-09T05:49:45.544Z,102487.10
2023-02-09T05:52:16.854Z,102482.38
2023-02-09T05:54:48.074Z,102475.74
2023-02-09T05:57:17.486Z,102477.79
2023-02-09T05:59:45.945Z,102471.01
2023-02-09T06:02:14.502Z,102468.86
2023-02-09T06:04:43.032Z,102471.94
2023-02-09T06:07:12.119Z,102465.40
2023-02-09T06:09:40.791Z,102468.30
2023-02-09T06:12:09.289Z,102469.06
2023-02-09T06:14:37.827Z,102467.50
2023-02-09T06:17:06.373Z,102464.00
2023-02-09T06:19:34.851Z,102466.23
2023-02-09T06:22:03.276Z,102466.55
2023-02-09T06:24:31.762Z,102461.06
2023-02-09T06:27:00.326Z,102458.02
2023-02-09T06:29:28.863Z,102455.49
2023-02-09T06:31:57.464Z,102455.56
2023-02-09T06:34:26.192Z,102451.00
2023-02-09T06:36:54.793Z,102449.80
2023-02-09T06:39:24.635Z,102450.75
2023-02-09T06:41:53.170Z,102447.64
2023-02-09T06:44:21.647Z,102446.95
2023-02-09T06:46:50.236Z,102450.88
2023-02-09T06:49:19.185Z,102443.06
2023-02-09T06:51:48.197Z,102442.69
2023-02-09T06:54:17.184Z,102447.48
2023-02-09T06:56:45.826Z,102446.11
2023-02-09T06:59:14.328Z,102449.36
2023-02-09T07:01:43.102Z,102447.13
2023-02-09T07:04:11.595Z,102446.10
2023-02-09T07:06:40.003Z,102442.70
2023-02-09T07:09:08.761Z,102441.81
2023-02-09T07:11:37.280Z,102441.80
2023-02-09T07:14:06.055Z,102443.02
2023-02-09T07:16:34.516Z,102446.13
2023-02-09T07:19:03.026Z,102442.96
2023-02-09T07:21:31.707Z,102437.10
2023-02-09T07:24:00.151Z,102432.19
2023-02-09T07:26:28.706Z,102433.38
2023-02-09T07:28:57.182Z,102432.80
2023-02-09T07:31:27.410Z,102427.81
2023-02-09T07:33:57.364Z,102427.08
2023-02-09T07:36:25.999Z,102427.80
2023-02-09T07:38:56.102Z,102425.41
2023-02-09T07:41:25.547Z,102427.16
2023-02-09T07:43:55.664Z,102435.13
2023-02-09T07:46:25.857Z,102436.92
2023-02-09T07:48:54.320Z,102436.00
2023-02-09T07:51:26.651Z,102441.55
2023-02-09T07:53:56.505Z,102439.02
2023-02-09T07:56:26.020Z,102433.70
2023-02-09T07:58:55.437Z,102436.08
2023-02-09T08:01:25.139Z,102436.48
2023-02-09T08:03:53.714Z,102435.32
2023-02-09T08:06:43.780Z,102435.67
2023-02-09T08:09:15.452Z,102428.50
2023-02-09T08:11:47.678Z,102429.23
2023-02-09T08:14:44.631Z,102437.78
2023-02-09T08:17:28.243Z,102440.32
2023-02-09T08:20:01.184Z,102436.48
2023-02-09T08:22:33.831Z,102433.66
2023-02-09T08:25:04.558Z,102430.06
2023-02-09T08:27:33.193Z,102428.77
2023-02-09T08:30:03.129Z,102429.70
2023-02-09T08:32:31.818Z,102427.92
2023-02-09T08:35:00.288Z,102425.62
2023-02-09T08:37:29.458Z,102421.73
2023-02-09T08:39:57.924Z,102416.97
2023-02-09T08:42:26.416Z,102419.88
2023-02-09T08:44:54.921Z,102420.78
2023-02-09T08:47:23.426Z,102416.31
2023-02-09T08:49:52.736Z,102414.91
2023-02-09T08:52:21.210Z,102409.91
2023-02-09T08:54:49.686Z,102416.52
2023-02-09T08:57:18.246Z,102414.05
2023-02-09T08:59:46.766Z,102413.50
2023-02-09T09:02:15.338Z,102417.57
2023-02-09T09:04:43.800Z,102418.39
2023-02-09T09:07:12.543Z,102417.35
2023-02-09T09:09:41.191Z,102415.93
2023-02-09T09:12:09.669Z,102413.34
2023-02-09T09:14:38.422Z,102417.33
2023-02-09T09:17:06.922Z,102411.40
2023-02-09T09:19:35.411Z,102411.98
2023-02-09T09:22:04.126Z,102411.38
2023-02-09T09:24:32.989Z,102409.02
2023-02-09T09:27:01.515Z,102407.68
2023-02-09T09:29:30.131Z,102401.38
2023-02-09T09:31:58.697Z,102404.80
2023-02-09T09:34:27.183Z,102409.14
2023-02-09T09:36:55.628Z,102405.40
2023-02-09T09:39:25.943Z,102405.42
2023-02-09T09:41:59.828Z,102396.08
2023-02-09T09:44:33.505Z,102389.03
2023-02-09T09:47:10.231Z,102393.45
2023-02-09T09:49:39.711Z,102390.59
2023-02-09T09:52:23.242Z,102387.57
2023-02-09T09:54:52.304Z,102390.14
2023-02-09T09:57:25.311Z,102389.31
2023-02-09T09:59:54.898Z,102387.20
2023-02-09T10:02:31.105Z,102390.04
2023-02-09T10:05:18.287Z,102383.45
2023-02-09T10:08:02.981Z,102381.28
2023-02-09T10:10:34.198Z,102382.95
2023-02-09T10:13:08.287Z,102383.52
2023-02-09T10:15:37.449Z,102380.37
2023-02-09T10:18:13.932Z,102376.85
2023-02-09T10:20:42.368Z,102385.91
2023-02-09T10:23:22.263Z,102383.36
2023-02-09T10:26:05.168Z,102382.70
2023-02-09T10:28:45.916Z,102381.98
2023-02-09T10:31:34.043Z,102378.95
2023-02-09T10:34:11.659Z,102379.64
2023-02-09T10:36:46.239Z,102378.60
2023-02-09T10:39:18.191Z,102377.55
2023-02-09T10:41:53.795Z,102372.77
2023-02-09T10:44:35.219Z,102367.21
2023-02-09T10:47:09.877Z,102368.91
2023-02-09T10:49:42.640Z,102372.17
2023-02-09T10:52:20.347Z,102367.08
2023-02-09T10:54:59.924Z,102367.30
2023-02-09T10:57:36.890Z,102361.25
2023-02-09T11:00:17.762Z,102358.61
2023-02-09T11:02:55.273Z,102357.79
2023-02-09T11:05:24.033Z,102355.80
2023-02-09T11:08:01.549Z,102354.63
2023-02-09T11:10:35.390Z,102350.75
2023-02-09T11:13:17.904Z,102346.33
2023-02-09T11:16:13.358Z,102337.25
2023-02-09T11:18:46.414Z,102333.80
2023-02-09T11:21:24.424Z,102326.81
2023-02-09T11:24:26.332Z,102323.27
2023-02-09T11:27:06.576Z,102311.94
2023-02-09T11:29:50.331Z,102308.34
2023-02-09T11:32:26.674Z,102300.17
2023-02-09T11:35:11.754Z,102297.41
2023-02-09T11:37:56.562Z,102301.52
2023-02-09T11:40:36.891Z,102295.42
2023-02-09T11:43:19.135Z,102297.34
2023-02-09T11:45:53.915Z,102296.13
2023-02-09T11:48:31.477Z,102288.06
2023-02-09T11:51:22.577Z,102286.52
2023-02-09T11:54:07.730Z,102283.39
2023-02-09T11:56:41.976Z,102279.69
2023-02-09T11:59:31.486Z,102270.35
2023-02-09T12:02:08.856Z,102269.87
2023-02-09T12:04:53.481Z,102262.60
2023-02-09T12:07:22.235Z,102256.57
2023-02-09T12:10:29.136Z,102251.58
2023-02-09T12:13:00.738Z,102253.90
2023-02-09T12:15:44.766Z,102253.39
2023-02-09T12:18:23.049Z,102243.61
2023-02-09T12:20:54.626Z,102240.77
2023-02-09T12:23:39.711Z,102236.48
2023-02-09T12:26:17.161Z,102231.28
2023-02-09T12:29:20.394Z,102237.17
2023-02-09T12:32:04.186Z,102228.98
2023-02-09T12:34:51.163Z,102224.04
2023-02-09T12:37:27.323Z,102224.41
2023-02-09T12:40:02.409Z,102221.75
2023-02-09T12:43:03.416Z,102215.30
2023-02-09T12:45:36.964Z,102210.02
2023-02-09T12:48:08.211Z,102210.38
2023-02-09T12:50:42.674Z,102208.81
2023-02-09T12:53:23.758Z,102202.95
2023-02-09T12:56:11.019Z,102205.45
2023-02-09T12:58:55.156Z,102200.99
2023-02-09T13:02:02.254Z,102204.87
2023-02-09T13:04:52.279Z,102193.45
2023-02-09T13:07:40.519Z,102191.30
2023-02-09T13:10:41.675Z,102188.52
2023-02-09T13:13:26.219Z,102188.77
2023-02-09T13:15:54.683Z,102186.54
2023-02-09T13:18:23.135Z,102180.85
2023-02-09T13:21:04.725Z,102180.08
2023-02-09T13:24:00.980Z,102174.17
2023-02-09T13:26:33.111Z,102164.64
2023-02-09T13:29:19.680Z,102158.80
2023-02-09T13:32:16.471Z,102146.91
2023-02-09T13:35:04.632Z,102129.38
2023-02-09T13:37:48.064Z,102136.02
2023-02-09T13:40:32.419Z,102147.49
2023-02-09T13:43:17.727Z,102142.75
2023-02-09T13:45:51.273Z,102139.16
2023-02-09T13:48:24.638Z,102138.49
2023-02-09T13:50:55.661Z,102144.20
2023-02-09T13:53:26.133Z,102145.61
2023-02-09T13:55:58.061Z,102146.03
2023-02-09T13:58:30.944Z,102153.20
2023-02-09T14:01:06.948Z,102149.08
2023-02-09T14:03:56.683Z,102151.49
2023-02-09T14:06:48.001Z,102142.70
2023-02-09T14:09:33.542Z,102136.92
2023-02-09T14:12:11.386Z,102135.40
2023-02-09T14:15:03.367Z,102135.88
2023-02-09T14:17:36.028Z,102133.55
2023-02-09T14:20:20.552Z,102130.48
2023-02-09T14:23:01.289Z,102129.81
2023-02-09T14:25:31.678Z,102125.94
2023-02-09T14:28:00.238Z,102124.83
2023-02-09T14:30:36.651Z,102119.08
2023-02-09T14:33:05.312Z,102117.58
2023-02-09T14:35:39.621Z,102119.70
2023-02-09T14:38:38.678Z,102119.67
2023-02-09T14:41:29.103Z,102126.55
2023-02-09T14:44:21.738Z,102137.45
2023-02-09T14:46:55.737Z,102139.75
2023-02-09T14:49:25.647Z,102140.17
2023-02-09T14:52:14.234Z,102139.74
2023-02-09T14:54:48.562Z,102141.70
2023-02-09T14:57:17.173Z,102135.80
2023-02-09T14:59:45.735Z,102137.40
2023-02-09T15:02:21.760Z,102133.73
2023-02-09T15:04:50.221Z,102124.09
2023-02-09T15:07:30.118Z,102115.80
2023-02-09T15:09:58.745Z,102112.08
2023-02-09T15:12:29.488Z,102108.81
2023-02-09T15:15:00.231Z,102095.86
2023-02-09T15:17:30.778Z,102088.27
2023-02-09T15:19:59.318Z,102085.30
2023-02-09T15:22:27.798Z,102083.53
2023-02-09T15:24:56.454Z,102086.69
2023-02-09T15:27:33.764Z,102091.42
2023-02-09T15:30:04.796Z,102087.23
2023-02-09T15:32:33.798Z,102088.35
2023-02-09T15:35:02.283Z,102087.61
2023-02-09T15:37:37.493Z,102080.59
2023-02-09T15:40:38.932Z,102073.57
2023-02-09T15:43:35.082Z,102073.73
2023-02-09T15:46:07.441Z,102072.95
2023-02-09T15:48:37.107Z,102073.36
2023-02-09T15:51:05.806Z,102074.71
2023-02-09T15:53:34.574Z,102077.48
2023-02-09T15:56:03.402Z,102070.23
2023-02-09T15:58:36.109Z,102063.05
2023-02-09T16:01:05.491Z,102068.48
2023-02-09T16:03:34.274Z,102072.88
2023-02-09T16:06:11.704Z,102078.21
2023-02-09T16:08:40.161Z,102082.04
2023-02-09T16:11:17.725Z,102093.52
2023-02-09T16:13:46.491Z,102090.29
2023-02-09T16:16:17.494Z,102091.39
2023-02-09T16:18:47.319Z,102094.35
2023-02-09T16:21:33.619Z,102090.38
2023-02-09T16:24:05.339Z,102087.95
2023-02-09T16:26:35.093Z,102085.28
2023-02-09T16:29:03.819Z,102081.24
2023-02-09T16:31:32.308Z,102068.81
2023-02-09T16:34:00.778Z,102063.00
2023-02-09T16:36:31.464Z,102063.96
2023-02-09T16:38:59.963Z,102059.51
2023-02-09T16:41:51.811Z,102071.93
2023-02-09T16:44:22.453Z,102077.33
2023-02-09T16:47:00.368Z,102079.38
2023-02-09T16:49:43.205Z,102086.11
2023-02-09T16:52:19.141Z,102086.48
2023-02-09T16:54:54.822Z,102080.16
2023-02-09T16:57:25.329Z,102078.59
2023-02-09T16:59:54.773Z,102073.27
2023-02-09T17:02:32.296Z,102082.09
2023-02-09T17:05:04.116Z,102078.16
2023-02-09T17:07:45.337Z,102054.93
2023-02-09T17:10:25.279Z,102063.04
2023-02-09T17:12:54.079Z,102065.17
2023-02-09T17:15:30.803Z,102040.92
2023-02-09T17:18:09.245Z,102035.59
2023-02-09T17:20:50.172Z,102029.47
2023-02-09T17:23:23.400Z,102031.52
2023-02-09T17:25:55.329Z,102038.65
2023-02-09T17:28:25.957Z,102037.77
2023-02-09T17:31:01.302Z,102039.02
2023-02-09T17:33:33.641Z,102039.74
2023-02-09T17:36:25.301Z,102039.20
2023-02-09T17:38:53.293Z,102032.22
2023-02-09T17:41:30.423Z,102036.79
2023-02-09T17:44:22.223Z,102041.52
2023-02-09T17:46:53.925Z,102041.89
2023-02-09T17:49:22.725Z,102048.39
2023-02-09T17:51:52.387Z,102051.88
2023-02-09T17:54:21.735Z,102047.92
2023-02-09T17:56:50.162Z,102050.83
2023-02-09T17:59:20.468Z,102045.14
2023-02-09T18:01:55.403Z,102047.50
2023-02-09T18:04:27.714Z,102057.42
2023-02-09T18:06:57.810Z,102056.29
2023-02-09T18:09:27.004Z,102059.41
2023-02-09T18:12:02.307Z,102055.52
2023-02-09T18:14:33.193Z,102047.63
2023-02-09T18:17:02.921Z,102049.20
2023-02-09T18:19:33.231Z,102049.38
2023-02-09T18:22:03.189Z,102054.80
2023-02-09T18:24:34.691Z,102053.39
2023-02-09T18:27:03.621Z,102050.30
2023-02-09T18:29:32.410Z,102053.91
2023-02-09T18:32:02.935Z,102055.20
2023-02-09T18:34:31.611Z,102056.86
2023-02-09T18:37:00.178Z,102042.85
2023-02-09T18:39:28.699Z,102025.90
2023-02-09T18:41:57.740Z,102018.58
2023-02-09T18:44:30.467Z,102021.45
2023-02-09T18:47:02.791Z,102029.23
2023-02-09T18:49:31.403Z,102023.20
2023-02-09T18:51:59.910Z,102015.23
2023-02-09T18:54:33.817Z,102008.73
2023-02-09T18:57:02.450Z,102013.11
2023-02-09T18:59:32.466Z,102017.13
2023-02-09T19:02:01.239Z,102019.39
2023-02-09T19:04:29.770Z,102012.83
2023-02-09T19:06:58.864Z,102011.70
2023-02-09T19:09:27.377Z,102007.31
2023-02-09T19:11:55.918Z,102015.34
2023-02-09T19:14:39.820Z,102013.06
2023-02-09T19:17:13.575Z,102017.10
2023-02-09T19:19:43.361Z,102018.29
2023-02-09T19:22:17.402Z,102021.48
2023-02-09T19:24:47.529Z,102019.34
2023-02-09T19:27:19.261Z,102010.95
2023-02-09T19:29:47.792Z,102011.04
2023-02-09T19:32:16.287Z,102010.40
2023-02-09T19:34:46.225Z,102010.48
2023-02-09T19:37:15.911Z,102024.58
2023-02-09T19:39:53.217Z,102026.27
2023-02-09T19:42:22.781Z,102012.80
2023-02-09T19:44:54.540Z,102018.02
2023-02-09T19:47:26.160Z,102020.67
2023-02-09T19:49:58.985Z,102017.00
2023-02-09T19:52:28.160Z,102020.27
2023-02-09T19:54:57.932Z,102016.29
2023-02-09T19:57:26.710Z,102016.16
2023-02-09T19:59:55.298Z,102019.48
2023-02-09T20:02:23.815Z,102010.23
2023-02-09T20:04:52.856Z,102001.17
2023-02-09T20:07:21.580Z,102003.65
2023-02-09T20:09:52.621Z,102010.91
2023-02-09T20:12:22.196Z,102005.16
2023-02-09T20:14:53.151Z,102003.33
2023-02-09T20:17:22.266Z,101997.75
2023-02-09T20:19:50.910Z,102005.27
2023-02-09T20:22:19.505Z,102007.40
2023-02-09T20:24:48.016Z,102004.92
2023-02-09T20:27:16.608Z,102014.50
2023-02-09T20:29:45.017Z,102017.09
2023-02-09T20:32:13.623Z,102015.04
2023-02-09T20:34:42.155Z,102016.06
2023-02-09T20:37:10.630Z,102011.71
2023-02-09T20:39:39.093Z,102014.18
2023-02-09T20:42:26.588Z,102011.36
2023-02-09T20:45:13.733Z,102009.13
2023-02-09T20:47:42.184Z,102003.64
2023-02-09T20:50:11.042Z,102002.69
2023-02-09T20:52:40.477Z,101997.09
2023-02-09T20:55:09.249Z,101998.73
2023-02-09T20:57:38.064Z,102000.11
2023-02-09T21:00:09.800Z,102003.29
2023-02-09T21:02:39.161Z,101999.24
2023-02-09T21:05:08.825Z,102000.16
2023-02-09T21:07:37.393Z,101991.23
2023-02-09T21:10:06.902Z,101999.61
2023-02-09T21:12:35.352Z,101998.14
2023-02-09T21:15:04.140Z,101992.44
2023-02-09T21:17:32.612Z,101990.98
2023-02-09T21:20:01.651Z,101988.61
2023-02-09T21:22:30.127Z,101991.35
2023-02-09T21:24:58.662Z,101995.90
2023-02-09T21:27:27.403Z,101987.80
2023-02-09T21:29:55.847Z,101988.45
2023-02-09T21:32:24.301Z,101991.33
2023-02-09T21:34:52.836Z,101986.52
2023-02-09T21:37:23.059Z,101987.42
2023-02-09T21:39:51.497Z,101990.70
2023-02-09T21:42:29.110Z,101987.51
2023-02-09T21:44:59.016Z,101983.96
2023-02-09T21:47:33.052Z,101982.86
2023-02-09T21:50:01.926Z,101982.77
2023-02-09T21:52:31.753Z,101984.96
2023-02-09T21:55:00.740Z,101981.92
2023-02-09T21:57:29.883Z,101985.27
2023-02-09T22:00:00.105Z,101989.33
2023-02-09T22:02:28.841Z,101988.98
2023-02-09T22:04:57.626Z,101991.23
2023-02-09T22:07:26.251Z,101990.36
2023-02-09T22:09:54.783Z,101991.13
2023-02-09T22:12:23.474Z,101991.38
2023-02-09T22:14:51.851Z,101986.49
2023-02-09T22:17:20.488Z,101983.09
2023-02-09T22:19:49.024Z,101981.84
2023-02-09T22:22:17.503Z,101984.65
2023-02-09T22:24:45.947Z,101989.26
2023-02-09T22:27:14.454Z,101989.51
2023-02-09T22:29:43.773Z,101998.06
2023-02-09T22:32:12.446Z,101999.23
2023-02-09T22:34:40.809Z,102003.64
2023-02-09T22:37:09.375Z,102007.20
2023-02-09T22:39:37.895Z,102006.21
2023-02-09T22:42:06.558Z,102008.77
2023-02-09T22:44:35.030Z,102010.45
2023-02-09T22:47:03.873Z,102010.05
2023-02-09T22:49:33.006Z,102014.11
2023-02-09T22:52:01.512Z,102010.80
2023-02-09T22:54:30.003Z,102014.94
2023-02-09T22:56:58.590Z,102017.73
2023-02-09T22:59:27.054Z,102021.13
2023-02-09T23:01:55.675Z,102010.76
2023-02-09T23:04:24.205Z,102006.47
2023-02-09T23:06:52.701Z,102007.18
2023-02-09T23:09:21.220Z,102005.11
2023-02-09T23:11:49.724Z,102004.87
2023-02-09T23:14:18.468Z,102006.39
2023-02-09T23:16:47.454Z,102006.71
2023-02-09T23:19:18.625Z,102009.85
2023-02-09T23:21:49.853Z,102012.39
2023-02-09T23:24:22.035Z,102010.38
2023-02-09T23:26:52.053Z,102008.52
2023-02-09T23:29:21.904Z,102012.77
2023-02-09T23:31:50.685Z,102008.94
2023-02-09T23:34:22.198Z,102005.04
2023-02-09T23:36:51.229Z,102005.65
2023-02-09T23:39:22.569Z,102000.88
2023-02-09T23:41:51.231Z,101998.97
2023-02-09T23:44:20.943Z,101997.35
2023-02-09T23:46:49.713Z,101998.15
2023-02-09T23:49:18.261Z,101997.80
2023-02-09T23:51:47.133Z,102004.52
2023-02-09T23:54:15.625Z,102006.68
2023-02-09T23:56:46.215Z,102012.70
2023-02-09T23:59:15.974Z,102010.01
